Time;durP1;ratioP1;P1;durP2;ratioP2;P2;SDS_P1;SDS_P2;PMS_P1;PMS_P2;Temp;Humidity;BMP_temperature;BMP_pressure;BME280_temperature;BME280_humidity;BME280_pressure;Samples;Min_cycle;Max_cycle;Signal;HPM_P1;HPM_P2
2024/04/14 00:00:32;;;;;;;2.77;1.80;;;;;;;14.52;69.20;96375.38;5495551;26;20232;-89
2024/04/14 00:03:00;;;;;;;1.93;1.63;;;;;;;14.48;69.43;96368.09;5496167;26;20244;-89
2024/04/14 00:05:27;;;;;;;3.67;2.10;;;;;;;14.58;68.39;96364.91;5497458;26;20271;-89
2024/04/14 00:07:58;;;;;;;2.00;1.60;;;;;;;14.69;68.59;96351.69;5496286;26;20319;-89
2024/04/14 00:10:24;;;;;;;2.03;1.60;;;;;;;14.76;67.89;96357.72;5497135;26;20228;-89
2024/04/14 00:12:52;;;;;;;1.70;1.50;;;;;;;14.77;67.16;96351.34;5498277;26;20280;-88
2024/04/14 00:15:19;;;;;;;4.43;1.87;;;;;;;14.82;67.23;96346.19;5496000;26;20229;-88
2024/04/14 00:17:47;;;;;;;3.73;2.00;;;;;;;15.00;66.73;96342.66;5494572;26;20762;-89
2024/04/14 00:20:13;;;;;;;2.40;1.50;;;;;;;14.97;66.25;96337.81;5496654;26;20274;-89
2024/04/14 00:22:43;;;;;;;2.77;1.40;;;;;;;14.95;66.49;96342.53;5496496;26;20284;-89
2024/04/14 00:25:11;;;;;;;1.67;1.40;;;;;;;15.07;66.02;96322.97;5495245;26;20224;-89
2024/04/14 00:27:40;;;;;;;5.00;1.33;;;;;;;15.11;65.49;96316.16;5497892;26;20288;-88
2024/04/14 00:30:07;;;;;;;2.70;1.67;;;;;;;15.06;65.59;96317.88;5496857;26;20263;-88
2024/04/14 00:32:36;;;;;;;2.23;1.20;;;;;;;15.04;65.58;96314.63;5497749;26;20237;-88
2024/04/14 00:35:02;;;;;;;1.73;1.33;;;;;;;15.06;65.73;96317.88;5497143;26;20271;-88
2024/04/14 00:37:31;;;;;;;2.10;1.60;;;;;;;15.00;66.20;96314.31;5497765;26;20240;-88
2024/04/14 00:39:56;;;;;;;2.30;1.70;;;;;;;15.07;65.55;96311.53;5496292;26;20271;-88
2024/04/14 00:42:28;;;;;;;4.57;1.47;;;;;;;14.99;65.78;96307.38;5499569;26;20276;-87
2024/04/14 00:44:54;;;;;;;2.83;1.67;;;;;;;15.01;66.11;96310.59;5498643;26;20232;-88
2024/04/14 00:47:23;;;;;;;2.07;1.50;;;;;;;15.04;66.65;96311.97;5491901;26;20743;-88
2024/04/14 00:49:48;;;;;;;2.93;1.50;;;;;;;14.94;66.79;96314.38;5493103;26;20305;-89
2024/04/14 00:52:17;;;;;;;1.93;1.33;;;;;;;14.81;66.68;96309.28;5493121;26;20292;-88
2024/04/14 00:54:43;;;;;;;2.83;1.57;;;;;;;14.89;67.02;96303.66;5493978;26;20228;-89
2024/04/14 00:57:13;;;;;;;1.77;1.37;;;;;;;14.90;67.32;96298.13;5493538;26;20296;-88
2024/04/14 00:59:41;;;;;;;3.87;1.70;;;;;;;14.83;67.45;96301.91;5494316;26;20255;-89
2024/04/14 01:02:10;;;;;;;2.20;1.60;;;;;;;14.79;67.56;96306.06;5494270;26;20224;-88
2024/04/14 01:04:36;;;;;;;4.43;1.53;;;;;;;14.77;67.32;96300.97;5492996;26;20270;-89
2024/04/14 01:07:04;;;;;;;2.77;1.30;;;;;;;14.76;67.81;96301.19;5491190;26;20244;-88
2024/04/14 01:09:30;;;;;;;3.53;1.67;;;;;;;14.66;68.24;96303.59;5494026;26;20264;-88
2024/04/14 01:11:59;;;;;;;2.37;1.50;;;;;;;14.73;68.63;96299.00;5494108;26;20284;-88
2024/04/14 01:14:25;;;;;;;1.60;1.30;;;;;;;14.75;67.98;96297.72;5490628;26;20232;-88
2024/04/14 01:16:56;;;;;;;3.13;1.40;;;;;;;14.80;68.49;96292.56;5493877;26;20343;-88
2024/04/14 01:19:22;;;;;;;2.27;1.30;;;;;;;14.73;68.14;96293.69;5493113;26;20263;-88
2024/04/14 01:21:50;;;;;;;1.87;1.20;;;;;;;14.83;68.01;96292.13;5494248;26;20280;-89
2024/04/14 01:24:16;;;;;;;2.10;1.33;;;;;;;14.76;68.64;96304.66;5494404;26;20229;-88
2024/04/14 01:26:47;;;;;;;1.80;1.30;;;;;;;14.80;68.33;96300.50;5508083;26;20351;-88
2024/04/14 01:29:13;;;;;;;1.67;1.30;;;;;;;14.77;68.23;96292.22;5528071;26;20229;-88
2024/04/14 01:31:42;;;;;;;2.50;1.43;;;;;;;14.79;68.42;96298.09;5530595;25;20326;-89
2024/04/14 01:34:08;;;;;;;3.37;1.50;;;;;;;14.84;68.13;96284.97;5528887;26;20235;-89
2024/04/14 01:36:36;;;;;;;1.40;1.20;;;;;;;14.93;68.11;96291.56;5530624;25;20340;-89
2024/04/14 01:39:02;;;;;;;2.60;1.20;;;;;;;14.96;67.76;96296.41;5530337;25;20552;-88
2024/04/14 01:41:30;;;;;;;1.37;1.20;;;;;;;14.99;67.56;96280.03;5530628;25;20227;-88
2024/04/14 01:43:59;;;;;;;2.90;1.30;;;;;;;14.92;68.16;96284.63;5528064;26;20329;-89
2024/04/14 01:46:27;;;;;;;2.37;1.37;;;;;;;15.05;67.60;96290.53;5529015;26;20232;-89
2024/04/14 01:48:53;;;;;;;2.23;1.30;;;;;;;15.08;67.30;96274.16;5531008;25;20611;-88
2024/04/14 01:51:22;;;;;;;3.47;1.70;;;;;;;15.09;66.98;96269.66;5530602;25;20278;-88
2024/04/14 01:53:48;;;;;;;1.90;1.10;;;;;;;15.07;67.33;96272.56;5530581;25;20223;-88
2024/04/14 01:56:16;;;;;;;2.20;1.10;;;;;;;15.07;67.33;96272.56;5529733;25;20631;-88
2024/04/14 01:58:42;;;;;;;2.63;1.10;;;;;;;15.11;67.34;96271.03;5528699;26;20538;-88
2024/04/14 02:01:14;;;;;;;1.67;1.10;;;;;;;15.06;67.46;96280.72;5530168;25;20268;-88
2024/04/14 02:03:41;;;;;;;1.23;1.00;;;;;;;14.95;68.03;96269.06;5527664;26;20695;-88
2024/04/14 02:06:10;;;;;;;1.10;1.00;;;;;;;14.98;67.64;96273.91;5530914;25;20231;-88
2024/04/14 02:08:36;;;;;;;1.73;1.10;;;;;;;15.05;67.68;96268.50;5528805;26;20255;-88
2024/04/14 02:11:05;;;;;;;3.33;1.10;;;;;;;15.04;67.60;96267.69;5528430;26;20231;-88
2024/04/14 02:13:31;;;;;;;2.60;1.53;;;;;;;15.10;67.44;96261.47;5530642;25;20228;-88
2024/04/14 02:16:00;;;;;;;2.37;1.20;;;;;;;15.11;67.20;96271.03;5527919;26;20757;-88
2024/04/14 02:18:28;;;;;;;1.50;0.97;;;;;;;15.04;67.53;96273.00;5529447;26;20243;-88
2024/04/14 02:20:58;;;;;;;1.30;1.20;;;;;;;15.11;67.36;96275.53;5531186;25;20274;-88
2024/04/14 02:23:24;;;;;;;2.00;1.30;;;;;;;15.24;67.22;96262.84;5530931;25;20273;-88
2024/04/14 02:25:56;;;;;;;1.23;1.03;;;;;;;15.21;66.82;96265.97;5531482;25;20228;-88
2024/04/14 02:28:22;;;;;;;1.37;1.07;;;;;;;15.22;67.17;96264.13;5530313;25;20267;-88
2024/04/14 02:30:51;;;;;;;2.43;1.23;;;;;;;15.23;66.66;96265.75;5530740;25;20227;-88
2024/04/14 02:33:17;;;;;;;1.50;1.37;;;;;;;15.21;67.01;96258.03;5531113;25;20223;-88
2024/04/14 02:35:56;;;;;;;1.10;1.00;;;;;;;15.28;66.44;96265.84;5530520;25;20265;-89
2024/04/14 02:38:21;;;;;;;2.03;1.30;;;;;;;15.18;66.42;96260.31;5531769;25;20235;-88
2024/04/14 02:40:57;;;;;;;1.33;1.00;;;;;;;15.16;66.84;96260.56;5528613;26;20283;-88
2024/04/14 02:43:23;;;;;;;2.17;1.17;;;;;;;15.09;67.25;96267.81;5529375;26;20579;-89
2024/04/14 02:45:51;;;;;;;2.37;1.33;;;;;;;15.00;67.48;96261.25;5528798;26;20223;-88
2024/04/14 02:48:17;;;;;;;2.07;1.20;;;;;;;15.00;67.86;96265.72;5531612;25;20250;-88
2024/04/14 02:50:46;;;;;;;2.13;1.30;;;;;;;14.88;68.36;96259.59;5531851;25;20270;-88
2024/04/14 02:53:15;;;;;;;7.37;1.27;;;;;;;14.90;68.22;96265.47;5529474;26;20679;-88
2024/04/14 02:55:43;;;;;;;1.23;1.10;;;;;;;14.87;68.06;96266.75;5531393;25;20664;-89
2024/04/14 02:58:09;;;;;;;2.00;1.23;;;;;;;14.81;67.92;96259.72;5531564;25;20320;-89
2024/04/14 03:00:38;;;;;;;1.57;1.13;;;;;;;14.89;68.03;96258.56;5529244;26;20235;-88
2024/04/14 03:03:04;;;;;;;1.90;1.30;;;;;;;14.73;68.91;96254.72;5532857;25;20266;-88
2024/04/14 03:05:32;;;;;;;1.90;1.70;;;;;;;14.81;68.55;96254.41;5530549;26;20254;-88
2024/04/14 03:07:59;;;;;;;1.20;1.10;;;;;;;14.70;69.00;96257.84;5532531;25;20235;-89
2024/04/14 03:10:31;;;;;;;2.40;1.17;;;;;;;14.66;68.70;96251.38;5532479;25;20227;-88
2024/04/14 03:12:57;;;;;;;1.50;1.40;;;;;;;14.73;68.70;96245.97;5532643;25;20265;-89
2024/04/14 03:15:25;;;;;;;3.23;1.30;;;;;;;14.74;68.68;96256.34;5532839;26;20270;-88
2024/04/14 03:17:51;;;;;;;4.17;1.30;;;;;;;14.78;68.63;96262.81;5537650;25;20235;-88
2024/04/14 03:20:19;;;;;;;1.53;1.00;;;;;;;14.73;68.63;96246.78;5534772;26;20376;-88
2024/04/14 03:22:45;;;;;;;2.43;1.07;;;;;;;14.75;68.43;96252.66;5537584;25;20292;-88
2024/04/14 03:25:14;;;;;;;1.50;1.27;;;;;;;14.73;68.89;96249.44;5532710;26;20259;-88
2024/04/14 03:27:42;;;;;;;2.63;1.20;;;;;;;14.83;68.72;96249.69;5534203;26;20246;-88
2024/04/14 03:30:11;;;;;;;1.53;0.90;;;;;;;14.68;69.10;96256.47;5529681;26;20234;-88
2024/04/14 03:32:37;;;;;;;1.87;1.40;;;;;;;14.71;68.92;96263.94;5532270;25;20290;-88
2024/04/14 03:35:07;;;;;;;2.13;1.30;;;;;;;14.66;69.44;96250.56;5531782;25;20287;-88
2024/04/14 03:37:35;;;;;;;1.33;1.20;;;;;;;14.56;69.44;96250.31;5529534;26;20246;-88
2024/04/14 03:40:05;;;;;;;2.17;1.40;;;;;;;14.48;69.75;96257.56;5532198;25;20309;-88
2024/04/14 03:42:34;;;;;;;1.87;0.97;;;;;;;14.67;69.40;96249.53;5532604;25;20568;-88
2024/04/14 03:45:08;;;;;;;1.67;1.20;;;;;;;14.59;69.14;96253.31;5531385;25;20276;-88
2024/04/14 03:47:37;;;;;;;1.40;1.20;;;;;;;14.55;69.77;96244.22;5530036;26;20250;-88
2024/04/14 03:50:03;;;;;;;3.03;1.17;;;;;;;14.61;69.76;96250.47;5529649;26;20235;-88
2024/04/14 03:52:32;;;;;;;1.33;1.00;;;;;;;14.61;69.76;96253.09;5531751;25;20273;-88
2024/04/14 03:54:57;;;;;;;2.13;1.20;;;;;;;14.77;69.41;96250.56;5530880;25;20273;-88
2024/04/14 03:57:26;;;;;;;4.23;1.57;;;;;;;14.78;69.88;96252.19;5531597;25;20299;-87
2024/04/14 03:59:52;;;;;;;2.63;1.17;;;;;;;14.82;68.85;96239.31;5529239;26;20273;-88
2024/04/14 04:02:23;;;;;;;1.70;1.20;;;;;;;15.08;69.12;96237.00;5531899;25;20223;-88
2024/04/14 04:04:49;;;;;;;2.33;1.30;;;;;;;14.97;68.51;96243.13;5530850;25;20656;-88
2024/04/14 04:07:18;;;;;;;1.77;1.40;;;;;;;14.90;68.64;96252.22;5530591;25;20299;-88
2024/04/14 04:09:44;;;;;;;1.93;1.20;;;;;;;14.89;68.85;96238.13;5531367;25;20285;-88
2024/04/14 04:12:12;;;;;;;2.30;1.10;;;;;;;14.84;69.00;96247.84;5531046;25;20595;-88
2024/04/14 04:14:38;;;;;;;2.03;1.30;;;;;;;14.78;69.37;96238.13;5529491;25;20238;-88
2024/04/14 04:17:07;;;;;;;2.23;1.10;;;;;;;14.85;68.84;96238.81;5530417;25;20298;-88
2024/04/14 04:19:35;;;;;;;1.50;1.20;;;;;;;14.94;69.70;96246.22;5528751;26;20262;-88
2024/04/14 04:22:04;;;;;;;1.20;1.10;;;;;;;14.90;69.39;96249.56;5530422;25;20227;-88
2024/04/14 04:24:30;;;;;;;1.50;1.20;;;;;;;14.78;69.50;96241.59;5529714;25;20231;-88
2024/04/14 04:26:59;;;;;;;3.80;1.40;;;;;;;14.86;68.87;96248.41;5527149;26;20283;-88
2024/04/14 04:29:27;;;;;;;4.87;1.90;;;;;;;14.64;69.54;96256.09;5530828;25;20303;-88
2024/04/14 04:31:55;;;;;;;2.67;1.80;;;;;;;14.46;70.37;96256.16;5528729;26;20319;-88
2024/04/14 04:34:21;;;;;;;3.03;1.13;;;;;;;14.49;71.63;96250.44;5530149;25;20243;-88
2024/04/14 04:36:53;;;;;;;1.63;1.10;;;;;;;14.66;71.71;96261.97;5519317;26;20249;-88
2024/04/14 04:39:19;;;;;;;2.30;0.77;;;;;;;14.68;70.85;96251.94;5492987;26;20227;-88
2024/04/14 04:41:47;;;;;;;1.50;1.27;;;;;;;14.71;70.62;96253.34;5491705;26;20643;-88
2024/04/14 04:44:13;;;;;;;2.17;1.30;;;;;;;14.64;71.50;96252.63;5493073;26;20224;-87
2024/04/14 04:46:41;;;;;;;1.33;1.03;;;;;;;14.60;71.45;96248.81;5493684;26;20236;-88
2024/04/14 04:49:07;;;;;;;2.30;1.37;;;;;;;14.65;71.81;96249.78;5494394;26;20783;-88
2024/04/14 04:51:36;;;;;;;1.90;1.30;;;;;;;14.76;71.90;96248.16;5491642;26;20350;-88
2024/04/14 04:54:05;;;;;;;3.00;1.20;;;;;;;14.92;72.24;96242.19;5490903;26;20559;-88
2024/04/14 04:56:33;;;;;;;2.60;1.00;;;;;;;14.92;71.83;96247.47;5491882;26;20236;-88
2024/04/14 04:58:59;;;;;;;1.60;1.13;;;;;;;14.91;71.35;96243.22;5491912;26;20784;-88
2024/04/14 05:01:28;;;;;;;1.10;1.00;;;;;;;14.89;71.47;96253.28;5493063;26;20279;-88
2024/04/14 05:03:53;;;;;;;2.10;1.13;;;;;;;14.94;71.38;96259.50;5493751;26;20275;-88
2024/04/14 05:06:22;;;;;;;1.77;1.00;;;;;;;14.86;71.86;96253.72;5493261;26;20237;-88
2024/04/14 05:08:48;;;;;;;1.60;1.10;;;;;;;14.89;72.69;96255.91;5491632;26;20244;-88
2024/04/14 05:11:19;;;;;;;2.83;1.13;;;;;;;14.96;72.49;96262.72;5493512;26;20275;-87
2024/04/14 05:13:45;;;;;;;2.50;1.30;;;;;;;14.90;72.85;96252.22;5492666;26;20565;-88
2024/04/14 05:16:13;;;;;;;2.80;1.17;;;;;;;14.87;73.32;96260.63;5492971;26;20305;-88
2024/04/14 05:18:39;;;;;;;4.23;1.53;;;;;;;14.94;73.65;96245.41;5493253;26;20298;-88
2024/04/14 05:21:08;;;;;;;2.60;1.07;;;;;;;15.10;73.51;96244.72;5491968;26;20563;-88
2024/04/14 05:23:34;;;;;;;1.50;1.10;;;;;;;15.46;72.40;96249.84;5492087;26;20701;-88
2024/04/14 05:26:02;;;;;;;2.30;1.13;;;;;;;15.50;72.01;96253.63;5490406;26;20258;-88
2024/04/14 05:28:31;;;;;;;3.67;0.90;;;;;;;15.54;72.18;96249.47;5493473;26;20233;-88
2024/04/14 05:31:00;;;;;;;1.57;1.10;;;;;;;15.67;71.70;96240.44;5493241;26;20574;-88
2024/04/14 05:33:26;;;;;;;1.63;1.10;;;;;;;15.64;72.56;96241.72;5493063;26;20229;-88
2024/04/14 05:35:56;;;;;;;1.07;0.97;;;;;;;15.80;71.86;96264.88;5490358;26;20255;-88
2024/04/14 05:38:21;;;;;;;1.27;1.10;;;;;;;15.81;72.09;96258.53;5490320;26;20291;-88
2024/04/14 05:40:51;;;;;;;2.27;1.23;;;;;;;15.76;72.30;96266.41;5495548;26;20292;-87
2024/04/14 05:43:16;;;;;;;1.20;1.10;;;;;;;15.89;71.61;96260.81;5490933;26;20716;-88
2024/04/14 05:45:48;;;;;;;2.20;1.60;;;;;;;15.86;71.87;96261.31;5492062;26;20300;-88
2024/04/14 05:48:14;;;;;;;2.83;1.30;;;;;;;15.76;72.26;96262.94;5490677;26;20240;-88
2024/04/14 05:50:42;;;;;;;3.03;1.27;;;;;;;15.81;72.38;96266.50;5492459;26;20331;-88
2024/04/14 05:53:08;;;;;;;2.10;1.23;;;;;;;15.75;72.43;96267.44;5492684;26;20228;-88
2024/04/14 05:55:37;;;;;;;1.70;1.40;;;;;;;15.61;73.31;96273.25;5489897;26;20259;-88
2024/04/14 05:58:03;;;;;;;2.17;1.57;;;;;;;15.64;73.34;96273.59;5493235;26;20297;-89
2024/04/14 06:00:31;;;;;;;4.23;1.70;;;;;;;15.78;73.32;96285.56;5490659;26;20701;-88
2024/04/14 06:03:00;;;;;;;2.13;1.50;;;;;;;15.62;74.09;96285.47;5492781;26;20327;-88
2024/04/14 06:05:29;;;;;;;2.73;1.27;;;;;;;15.51;74.27;96287.13;5490885;26;20236;-88
2024/04/14 06:07:55;;;;;;;6.50;2.00;;;;;;;15.66;73.76;96279.47;5492662;26;20237;-88
2024/04/14 06:10:23;;;;;;;1.30;1.20;;;;;;;15.86;73.20;96290.53;5492476;26;20292;-88
2024/04/14 06:12:50;;;;;;;2.70;1.40;;;;;;;15.79;73.38;96297.81;5491433;26;20270;-88
2024/04/14 06:15:19;;;;;;;2.67;1.20;;;;;;;15.97;73.09;96288.06;5494220;26;20248;-88
2024/04/14 06:17:45;;;;;;;15.37;2.10;;;;;;;15.90;73.62;96289.00;5509418;26;20248;-88
2024/04/14 06:20:16;;;;;;;3.50;1.57;;;;;;;15.92;74.23;96290.66;5507391;26;20303;-87
2024/04/14 06:22:42;;;;;;;3.63;1.60;;;;;;;15.99;74.00;96296.59;5510828;26;20240;-88
2024/04/14 06:25:10;;;;;;;1.73;1.20;;;;;;;16.05;73.82;96295.69;5509209;25;20561;-88
2024/04/14 06:27:36;;;;;;;2.40;1.60;;;;;;;16.04;74.18;96294.06;5514481;26;20314;-88
2024/04/14 06:30:05;;;;;;;4.03;1.40;;;;;;;16.26;73.36;96295.84;5530571;26;20295;-88
2024/04/14 06:32:31;;;;;;;2.70;1.27;;;;;;;16.36;73.21;96298.69;5527785;26;20258;-88
2024/04/14 06:34:59;;;;;;;1.60;1.07;;;;;;;16.47;73.08;96302.34;5529354;26;20629;-88
2024/04/14 06:37:28;;;;;;;4.27;1.43;;;;;;;16.57;73.42;96302.56;5529374;25;20235;-88
2024/04/14 06:39:56;;;;;;;1.43;1.27;;;;;;;16.76;74.46;96303.97;5531058;25;20239;-88
2024/04/14 06:42:22;;;;;;;11.03;1.93;;;;;;;17.01;73.79;96293.75;5530992;25;20227;-89
2024/04/14 06:44:51;;;;;;;2.83;1.30;;;;;;;17.11;73.12;96299.25;5529732;25;20287;-88
2024/04/14 06:47:17;;;;;;;2.40;1.10;;;;;;;17.24;72.07;96298.94;5527966;25;20239;-88
2024/04/14 06:49:46;;;;;;;6.10;1.50;;;;;;;17.38;71.97;96296.75;5529189;26;20287;-88
2024/04/14 06:52:12;;;;;;;3.70;1.30;;;;;;;17.58;71.74;96296.25;5533034;25;20270;-89
2024/04/14 06:54:43;;;;;;;2.83;1.50;;;;;;;17.79;71.38;96303.47;5532236;25;20227;-88
2024/04/14 06:57:09;;;;;;;1.43;1.30;;;;;;;17.90;70.89;96294.56;5494685;25;20294;-89
2024/04/14 06:59:37;;;;;;;13.10;1.60;;;;;;;18.19;69.05;96298.66;5495120;26;20272;-89
2024/04/14 07:02:03;;;;;;;3.93;1.70;;;;;;;18.27;68.85;96295.56;5494468;26;20228;-88
2024/04/14 07:04:32;;;;;;;7.50;1.60;;;;;;;18.41;68.42;96293.31;5494576;26;20697;-88
2024/04/14 07:06:58;;;;;;;8.23;1.70;;;;;;;18.55;67.92;96287.34;5493476;26;20278;-88
2024/04/14 07:09:26;;;;;;;3.53;1.50;;;;;;;18.54;66.05;96290.28;5495779;26;20292;-88
2024/04/14 07:11:55;;;;;;;7.63;1.47;;;;;;;18.69;65.77;96287.78;5496520;26;20271;-88
2024/04/14 07:14:24;;;;;;;3.97;1.60;;;;;;;18.71;66.32;96287.50;5495406;26;20275;-89
2024/04/14 07:16:50;;;;;;;2.83;1.20;;;;;;;18.97;65.51;96292.84;5494624;26;20287;-89
2024/04/14 07:19:18;;;;;;;4.73;1.77;;;;;;;19.07;66.19;96284.09;5493863;26;20280;-89
2024/04/14 07:21:44;;;;;;;2.17;1.30;;;;;;;19.20;65.75;96289.84;5496654;26;20220;-89
2024/04/14 07:24:12;;;;;;;3.17;1.47;;;;;;;19.26;66.62;96288.78;5495617;25;20312;-89
2024/04/14 07:26:40;;;;;;;2.17;1.33;;;;;;;19.35;65.51;96291.00;5492599;26;20302;-89
2024/04/14 07:29:11;;;;;;;1.77;1.50;;;;;;;19.46;65.96;96296.19;5493581;26;20237;-89
2024/04/14 07:31:37;;;;;;;3.07;1.57;;;;;;;19.59;65.51;96290.41;5497056;26;20232;-88
2024/04/14 07:34:16;;;;;;;2.87;1.53;;;;;;;19.73;66.12;96294.22;5498682;26;20243;-88
2024/04/14 07:36:56;;;;;;;1.50;1.30;;;;;;;19.89;65.16;96293.25;5502830;25;20286;-89
2024/04/14 07:39:31;;;;;;;68.70;5.73;;;;;;;19.96;64.53;96295.66;5527784;26;20288;-88
2024/04/14 07:41:57;;;;;;;5.97;1.80;;;;;;;20.05;64.04;96296.78;5514126;25;20253;-88
2024/04/14 07:44:28;;;;;;;8.10;1.70;;;;;;;20.08;64.58;96303.47;5496655;26;20285;-87
2024/04/14 07:46:54;;;;;;;4.37;1.80;;;;;;;20.32;63.57;96310.03;5512371;26;20246;-87
2024/04/14 07:49:23;;;;;;;11.90;1.80;;;;;;;20.39;63.73;96299.91;5511451;26;20238;-87
2024/04/14 07:51:49;;;;;;;4.13;1.70;;;;;;;20.62;62.54;96299.44;5496077;26;20774;-88
2024/04/14 07:54:18;;;;;;;3.63;1.60;;;;;;;20.65;62.34;96296.22;5510928;26;20251;-87
2024/04/14 07:56:44;;;;;;;4.27;1.40;;;;;;;20.71;62.20;96295.16;5505572;26;20277;-87
2024/04/14 07:59:13;;;;;;;4.60;1.40;;;;;;;20.73;61.58;96300.25;5496095;26;20636;-88
2024/04/14 08:01:42;;;;;;;3.67;1.60;;;;;;;20.76;61.09;96291.69;5491568;26;20225;-88
2024/04/14 08:04:11;;;;;;;8.70;2.93;;;;;;;20.74;61.93;96299.19;5489149;26;20266;-88
2024/04/14 08:06:37;;;;;;;3.80;1.83;;;;;;;20.84;62.15;96302.66;5491519;26;20747;-89
2024/04/14 08:09:08;;;;;;;6.33;1.60;;;;;;;21.00;61.44;96293.63;5491749;26;20566;-89
2024/04/14 08:11:34;;;;;;;2.13;1.60;;;;;;;21.04;60.95;96291.19;5491862;26;20232;-88
2024/04/14 08:14:03;;;;;;;2.07;1.60;;;;;;;21.15;60.98;96307.03;5491744;26;20232;-89
2024/04/14 08:16:28;;;;;;;8.13;1.73;;;;;;;21.01;60.73;96286.34;5493673;26;20300;-88
2024/04/14 08:19:00;;;;;;;3.63;1.47;;;;;;;21.26;60.97;96289.88;5491909;26;20248;-88
2024/04/14 08:21:26;;;;;;;1.77;1.50;;;;;;;21.36;59.04;96283.72;5492758;26;20236;-88
2024/04/14 08:23:55;;;;;;;6.10;1.60;;;;;;;21.44;59.44;96285.06;5493421;26;20293;-88
2024/04/14 08:26:21;;;;;;;2.13;1.60;;;;;;;21.45;59.85;96284.00;5494262;26;20375;-88
2024/04/14 08:28:49;;;;;;;5.50;1.83;;;;;;;21.54;59.07;96288.50;5492328;26;20586;-88
2024/04/14 08:31:15;;;;;;;3.63;1.73;;;;;;;21.48;60.95;96292.28;5499214;26;20224;-88
2024/04/14 08:33:44;;;;;;;2.80;1.50;;;;;;;21.70;59.74;96292.81;5494689;26;20604;-87
2024/04/14 08:36:13;;;;;;;1.50;1.30;;;;;;;21.73;58.96;96292.22;5495244;26;20229;-88
2024/04/14 08:38:41;;;;;;;4.07;1.60;;;;;;;21.65;57.26;96284.75;5493990;26;20225;-89
2024/04/14 08:41:07;;;;;;;2.13;1.40;;;;;;;21.83;56.31;96286.03;5493577;26;20240;-89
2024/04/14 08:43:36;;;;;;;1.77;1.37;;;;;;;21.92;55.88;96289.81;5492420;26;20696;-88
2024/04/14 08:46:02;;;;;;;1.87;1.37;;;;;;;22.21;55.33;96293.47;5493215;26;20229;-89
2024/04/14 08:48:30;;;;;;;4.60;1.30;;;;;;;21.95;52.69;96282.03;5495978;26;20315;-89
2024/04/14 08:50:56;;;;;;;2.00;1.67;;;;;;;21.95;53.89;96286.59;5494777;26;20750;-88
2024/04/14 08:53:27;;;;;;;3.07;1.37;;;;;;;22.09;54.01;96276.88;5492735;26;20288;-89
2024/04/14 08:55:53;;;;;;;2.30;1.50;;;;;;;22.20;53.93;96278.44;5493498;26;20292;-88
2024/04/14 08:58:22;;;;;;;3.20;1.30;;;;;;;22.17;53.54;96276.28;5491355;26;20340;-89
2024/04/14 09:00:47;;;;;;;3.63;1.60;;;;;;;;;;5491244;26;20297;-88
2024/04/14 09:03:16;;;;;;;1.87;1.50;;;;;;;21.99;54.03;96285.75;5491042;26;20704;-89
2024/04/14 09:05:42;;;;;;;2.03;1.40;;;;;;;22.18;53.85;96277.09;5492682;26;20221;-89
2024/04/14 09:08:10;;;;;;;2.97;1.00;;;;;;;22.42;53.94;96280.75;5493573;26;20323;-88
2024/04/14 09:10:39;;;;;;;1.90;1.57;;;;;;;22.61;52.44;96273.72;5492697;26;20258;-89
2024/04/14 09:13:08;;;;;;;5.30;1.40;;;;;;;22.59;50.49;96268.56;5489104;26;20237;-89
2024/04/14 09:15:38;;;;;;;2.07;1.20;;;;;;;22.64;50.59;96268.56;5504208;26;20607;-88
2024/04/14 09:18:07;;;;;;;3.37;1.40;;;;;;;22.71;51.05;96272.84;5506797;26;20302;-89
2024/04/14 09:20:33;;;;;;;3.23;1.43;;;;;;;22.72;50.77;96269.88;5508993;26;20237;-88
2024/04/14 09:23:01;;;;;;;1.87;1.30;;;;;;;22.61;49.77;96266.44;5508012;26;20337;-89
2024/04/14 09:25:27;;;;;;;4.27;1.60;;;;;;;22.75;50.43;96260.47;5508434;26;20732;-89
2024/04/14 09:28:07;;;;;;;1.83;1.33;;;;;;;22.96;50.26;96252.00;5507421;26;20244;-89
2024/04/14 09:30:42;;;;;;;1.77;1.40;;;;;;;23.23;49.89;96249.59;5511620;26;20309;-89
2024/04/14 09:33:11;;;;;;;3.00;1.60;;;;;;;23.39;50.01;96255.66;5511472;26;20300;-87
2024/04/14 09:35:37;;;;;;;1.90;1.13;;;;;;;22.93;48.30;96265.16;5507347;26;20820;-87
2024/04/14 09:38:06;;;;;;;1.93;1.00;;;;;;;22.71;48.74;96270.94;5502105;26;20308;-87
2024/04/14 09:40:34;;;;;;;1.30;1.20;;;;;;;22.85;48.30;96274.63;5520244;26;20250;-88
2024/04/14 09:43:06;;;;;;;2.60;1.30;;;;;;;22.92;49.70;96268.94;5499354;26;20242;-88
2024/04/14 09:45:32;;;;;;;1.50;1.40;;;;;;;23.02;50.13;96272.34;5501181;26;20640;-87
2024/04/14 09:48:01;;;;;;;4.00;1.30;;;;;;;23.18;49.85;96271.16;5497612;26;20241;-87
2024/04/14 09:50:27;;;;;;;1.90;1.47;;;;;;;23.13;49.05;96260.44;5502507;26;20722;-88
2024/04/14 09:52:56;;;;;;;1.20;1.10;;;;;;;23.18;50.19;96257.72;5500823;26;20342;-87
2024/04/14 09:55:22;;;;;;;1.70;1.10;;;;;;;23.23;48.53;96257.66;5493630;26;20290;-88
2024/04/14 09:57:51;;;;;;;1.60;1.37;;;;;;;23.29;48.44;96255.75;5497539;26;20245;-87
2024/04/14 10:00:20;;;;;;;1.67;1.40;;;;;;;23.34;48.43;96253.84;5499989;26;20293;-87
2024/04/14 10:02:51;;;;;;;7.97;1.63;;;;;;;23.43;49.33;96256.72;5498183;26;20246;-88
2024/04/14 10:05:17;;;;;;;2.07;1.33;;;;;;;23.74;49.06;96249.94;5497918;26;20247;-88
2024/04/14 10:07:47;;;;;;;4.60;1.40;;;;;;;23.91;48.97;96258.38;5513101;26;20285;-87
2024/04/14 10:10:15;;;;;;;1.23;1.13;;;;;;;23.99;47.89;96246.97;5496591;26;20238;-87
2024/04/14 10:12:41;;;;;;;3.30;1.27;;;;;;;23.93;48.23;96255.38;5506645;25;20244;-87
2024/04/14 10:15:11;;;;;;;2.20;1.07;;;;;;;23.88;47.14;96253.56;5509127;25;20308;-88
2024/04/14 10:17:39;;;;;;;3.50;1.40;;;;;;;23.80;47.60;96248.00;5502812;26;20291;-88
2024/04/14 10:20:15;;;;;;;1.83;1.27;;;;;;;23.69;48.23;96239.22;5513285;26;20241;-87
2024/04/14 10:22:42;;;;;;;2.53;1.40;;;;;;;23.45;47.38;96237.63;5503471;26;20237;-88
2024/04/14 10:25:20;;;;;;;3.47;1.50;;;;;;;23.48;47.52;96235.16;5513186;26;20359;-87
2024/04/14 10:27:45;;;;;;;3.07;1.30;;;;;;;23.68;47.50;96236.84;5521879;26;20259;-88
2024/04/14 10:30:20;;;;;;;1.47;1.30;;;;;;;23.53;48.41;96240.47;5513734;26;20235;-87
2024/04/14 10:33:00;;;;;;;2.63;1.27;;;;;;;23.71;48.21;96230.91;5513373;26;20293;-87
2024/04/14 10:35:28;;;;;;;2.87;1.50;;;;;;;23.88;47.82;96223.16;5505533;26;20282;-88
2024/04/14 10:37:54;;;;;;;3.87;1.40;;;;;;;23.91;47.96;96226.09;5493076;26;20246;-88
2024/04/14 10:40:23;;;;;;;3.13;1.20;;;;;;;24.03;47.96;96220.28;5511232;26;20354;-88
2024/04/14 10:42:51;;;;;;;1.13;1.00;;;;;;;23.88;46.37;96220.47;5509106;25;20289;-88
2024/04/14 10:45:27;;;;;;;2.90;1.53;;;;;;;23.98;47.93;96223.03;5492875;26;20273;-88
2024/04/14 10:48:00;;;;;;;4.23;1.63;;;;;;;24.01;48.28;96209.00;5493111;26;20285;-87
2024/04/14 10:50:27;;;;;;;1.50;1.20;;;;;;;24.03;47.42;96217.59;5493037;26;20310;-88
2024/04/14 10:52:56;;;;;;;2.33;1.37;;;;;;;24.14;47.27;96212.91;5491288;26;20294;-88
2024/04/14 10:55:22;;;;;;;3.13;1.43;;;;;;;23.91;46.89;96226.09;5492822;26;20271;-88
2024/04/14 10:57:50;;;;;;;1.70;1.33;;;;;;;23.74;47.46;96214.97;5494055;26;20301;-88
2024/04/14 11:00:16;;;;;;;12.67;1.70;;;;;;;23.81;47.58;96214.63;5491401;26;20273;-88
2024/04/14 11:02:45;;;;;;;1.53;1.20;;;;;;;23.84;47.47;96197.91;5492719;26;20712;-88
2024/04/14 11:05:14;;;;;;;1.43;1.30;;;;;;;23.85;47.50;96207.59;5493126;26;20228;-88
2024/04/14 11:07:42;;;;;;;1.43;1.33;;;;;;;23.99;47.29;96197.75;5491044;26;20588;-88
2024/04/14 11:10:08;;;;;;;1.30;1.20;;;;;;;24.04;47.08;96195.75;5492768;26;20228;-87
2024/04/14 11:12:37;;;;;;;2.47;1.63;;;;;;;24.05;47.86;96197.38;5493260;26;20625;-88
2024/04/14 11:15:06;;;;;;;3.07;1.40;;;;;;;24.13;48.68;96198.66;5492775;26;20294;-88
2024/04/14 11:17:35;;;;;;;1.63;1.37;;;;;;;23.96;46.77;96196.41;5491825;26;20249;-88
2024/04/14 11:20:01;;;;;;;4.83;1.50;;;;;;;23.99;46.24;96195.03;5491373;26;20237;-88
2024/04/14 11:22:33;;;;;;;2.00;1.17;;;;;;;23.75;46.16;96200.44;5494043;26;20345;-89
2024/04/14 11:24:59;;;;;;;1.93;1.30;;;;;;;23.62;46.70;96198.41;5491141;26;20261;-88
2024/04/14 11:27:28;;;;;;;1.57;1.30;;;;;;;23.70;46.73;96191.63;5493364;26;20610;-88
2024/04/14 11:29:54;;;;;;;1.60;1.50;;;;;;;23.83;45.95;96185.53;5492439;26;20236;-88
2024/04/14 11:32:35;;;;;;;1.40;1.30;;;;;;;23.69;47.20;96193.50;5494153;26;20296;-88
2024/04/14 11:35:01;;;;;;;1.57;1.30;;;;;;;23.75;47.58;96191.56;5494606;26;20220;-88
2024/04/14 11:37:34;;;;;;;1.50;1.23;;;;;;;24.07;48.48;96177.47;5496019;26;20295;-87